Terminal Aerodrome Forecast
Issued by NWS

Home | Current Version | Previous Version | Text Only | Print | Product List | Glossary On
Versions: 1 2 3 4 5 6 7 8 9 10 11 12 13 14 15 16 17 18 19 20 21 22 23 24 25 26 27 28 29 30 31 32 33 34 35 36 37
000
FTUS45 KTWC 271100
TAFOLS
TAF
KOLS 271132Z 2712/2812 09003KT P6SM SCT180
     FM271700 VRB04KT P6SM FEW060 SCT180
     FM272000 34006KT P6SM SCT060
     FM280400 09004KT P6SM SKC=

USA.gov is the U.S. government's official web portal to all federal, state and local government web resources and services.